sensor_id;sensor_type;location;lat;lon;timestamp;P1;durP1;ratioP1;P2;durP2;ratioP2
42168;SDS011;27838;43.858;25.974;2023-03-31T00:02:01;45.05;;;13.55;;
42168;SDS011;27838;43.858;25.974;2023-03-31T00:04:31;27.48;;;9.85;;
42168;SDS011;27838;43.858;25.974;2023-03-31T00:06:58;24.00;;;10.38;;
42168;SDS011;27838;43.858;25.974;2023-03-31T00:09:25;22.73;;;10.48;;
42168;SDS011;27838;43.858;25.974;2023-03-31T00:11:54;22.60;;;9.73;;
42168;SDS011;27838;43.858;25.974;2023-03-31T00:14:20;14.95;;;7.30;;
42168;SDS011;27838;43.858;25.974;2023-03-31T00:16:47;13.55;;;5.28;;
42168;SDS011;27838;43.858;25.974;2023-03-31T00:19:13;10.50;;;4.80;;
42168;SDS011;27838;43.858;25.974;2023-03-31T00:21:47;12.13;;;5.75;;
42168;SDS011;27838;43.858;25.974;2023-03-31T00:24:26;13.00;;;5.38;;
42168;SDS011;27838;43.858;25.974;2023-03-31T00:26:59;12.70;;;5.32;;
42168;SDS011;27838;43.858;25.974;2023-03-31T00:29:29;13.18;;;5.28;;
42168;SDS011;27838;43.858;25.974;2023-03-31T00:31:57;12.45;;;5.70;;
42168;SDS011;27838;43.858;25.974;2023-03-31T00:34:25;12.80;;;5.45;;
42168;SDS011;27838;43.858;25.974;2023-03-31T00:36:51;9.80;;;5.93;;
42168;SDS011;27838;43.858;25.974;2023-03-31T00:39:21;11.63;;;5.50;;
42168;SDS011;27838;43.858;25.974;2023-03-31T00:41:48;13.30;;;5.93;;
42168;SDS011;27838;43.858;25.974;2023-03-31T00:49:34;14.32;;;5.85;;
42168;SDS011;27838;43.858;25.974;2023-03-31T00:54:43;16.30;;;5.97;;
42168;SDS011;27838;43.858;25.974;2023-03-31T00:57:13;15.32;;;6.32;;
42168;SDS011;27838;43.858;25.974;2023-03-31T00:59:50;13.13;;;5.20;;
42168;SDS011;27838;43.858;25.974;2023-03-31T01:02:21;14.27;;;5.40;;
42168;SDS011;27838;43.858;25.974;2023-03-31T01:04:50;20.98;;;7.82;;
42168;SDS011;27838;43.858;25.974;2023-03-31T01:07:22;31.73;;;7.70;;
42168;SDS011;27838;43.858;25.974;2023-03-31T01:09:56;70.13;;;13.75;;
42168;SDS011;27838;43.858;25.974;2023-03-31T01:12:25;65.18;;;12.05;;
42168;SDS011;27838;43.858;25.974;2023-03-31T01:14:52;53.95;;;12.00;;
42168;SDS011;27838;43.858;25.974;2023-03-31T01:17:20;55.17;;;9.88;;
42168;SDS011;27838;43.858;25.974;2023-03-31T01:42:26;16.02;;;5.03;;
42168;SDS011;27838;43.858;25.974;2023-03-31T01:56:13;16.15;;;5.00;;
42168;SDS011;27838;43.858;25.974;2023-03-31T01:58:48;13.38;;;4.90;;
42168;SDS011;27838;43.858;25.974;2023-03-31T02:01:46;18.42;;;5.55;;
42168;SDS011;27838;43.858;25.974;2023-03-31T02:04:23;16.15;;;4.95;;
42168;SDS011;27838;43.858;25.974;2023-03-31T02:06:58;15.13;;;5.50;;
42168;SDS011;27838;43.858;25.974;2023-03-31T02:09:37;10.93;;;5.20;;
42168;SDS011;27838;43.858;25.974;2023-03-31T02:12:08;13.98;;;5.28;;
42168;SDS011;27838;43.858;25.974;2023-03-31T02:14:38;19.65;;;5.22;;
42168;SDS011;27838;43.858;25.974;2023-03-31T02:17:09;12.05;;;4.30;;
42168;SDS011;27838;43.858;25.974;2023-03-31T02:19:42;12.80;;;4.05;;
42168;SDS011;27838;43.858;25.974;2023-03-31T02:22:12;13.83;;;4.83;;
42168;SDS011;27838;43.858;25.974;2023-03-31T02:24:43;77.95;;;11.77;;
42168;SDS011;27838;43.858;25.974;2023-03-31T02:27:22;43.67;;;9.68;;
42168;SDS011;27838;43.858;25.974;2023-03-31T02:29:52;27.23;;;7.22;;
42168;SDS011;27838;43.858;25.974;2023-03-31T02:32:22;34.70;;;6.28;;
42168;SDS011;27838;43.858;25.974;2023-03-31T02:34:57;25.20;;;6.10;;
42168;SDS011;27838;43.858;25.974;2023-03-31T02:37:25;16.25;;;4.63;;
42168;SDS011;27838;43.858;25.974;2023-03-31T02:39:52;17.45;;;4.82;;
42168;SDS011;27838;43.858;25.974;2023-03-31T02:42:22;23.98;;;5.20;;
42168;SDS011;27838;43.858;25.974;2023-03-31T02:44:49;54.42;;;7.40;;
42168;SDS011;27838;43.858;25.974;2023-03-31T02:47:16;51.08;;;8.52;;
42168;SDS011;27838;43.858;25.974;2023-03-31T02:49:45;30.33;;;5.88;;
42168;SDS011;27838;43.858;25.974;2023-03-31T02:55:08;24.63;;;5.40;;
42168;SDS011;27838;43.858;25.974;2023-03-31T03:03:49;16.92;;;5.18;;
42168;SDS011;27838;43.858;25.974;2023-03-31T03:06:38;9.98;;;5.47;;
42168;SDS011;27838;43.858;25.974;2023-03-31T03:12:15;7.72;;;4.85;;
42168;SDS011;27838;43.858;25.974;2023-03-31T03:14:54;14.73;;;4.38;;
42168;SDS011;27838;43.858;25.974;2023-03-31T03:17:40;8.60;;;4.28;;
42168;SDS011;27838;43.858;25.974;2023-03-31T03:20:10;6.57;;;3.90;;
42168;SDS011;27838;43.858;25.974;2023-03-31T03:22:38;8.18;;;3.60;;
42168;SDS011;27838;43.858;25.974;2023-03-31T03:25:05;5.35;;;3.38;;
42168;SDS011;27838;43.858;25.974;2023-03-31T03:27:34;6.43;;;3.20;;
42168;SDS011;27838;43.858;25.974;2023-03-31T03:30:02;4.07;;;2.78;;
42168;SDS011;27838;43.858;25.974;2023-03-31T03:32:31;4.60;;;2.85;;
42168;SDS011;27838;43.858;25.974;2023-03-31T03:34:59;3.67;;;2.78;;
42168;SDS011;27838;43.858;25.974;2023-03-31T03:37:26;4.70;;;2.70;;
42168;SDS011;27838;43.858;25.974;2023-03-31T03:39:53;4.43;;;3.00;;
42168;SDS011;27838;43.858;25.974;2023-03-31T03:42:20;4.13;;;2.83;;
42168;SDS011;27838;43.858;25.974;2023-03-31T03:44:46;5.05;;;3.10;;
42168;SDS011;27838;43.858;25.974;2023-03-31T03:47:13;4.93;;;2.97;;
42168;SDS011;27838;43.858;25.974;2023-03-31T03:49:40;4.18;;;2.80;;
42168;SDS011;27838;43.858;25.974;2023-03-31T03:52:06;4.85;;;2.92;;
42168;SDS011;27838;43.858;25.974;2023-03-31T03:54:33;9.45;;;3.63;;
42168;SDS011;27838;43.858;25.974;2023-03-31T03:57:00;4.63;;;3.10;;
42168;SDS011;27838;43.858;25.974;2023-03-31T03:59:26;8.20;;;3.20;;
42168;SDS011;27838;43.858;25.974;2023-03-31T04:01:53;6.80;;;3.15;;
42168;SDS011;27838;43.858;25.974;2023-03-31T04:04:19;11.00;;;3.15;;
42168;SDS011;27838;43.858;25.974;2023-03-31T04:06:46;6.75;;;2.92;;
42168;SDS011;27838;43.858;25.974;2023-03-31T04:09:12;6.88;;;3.20;;
42168;SDS011;27838;43.858;25.974;2023-03-31T04:11:39;7.13;;;3.58;;
42168;SDS011;27838;43.858;25.974;2023-03-31T04:14:06;7.45;;;3.50;;
42168;SDS011;27838;43.858;25.974;2023-03-31T04:16:32;4.55;;;3.05;;
42168;SDS011;27838;43.858;25.974;2023-03-31T04:18:59;7.63;;;3.95;;
42168;SDS011;27838;43.858;25.974;2023-03-31T04:21:28;8.93;;;4.03;;
42168;SDS011;27838;43.858;25.974;2023-03-31T04:23:58;7.47;;;3.73;;
42168;SDS011;27838;43.858;25.974;2023-03-31T04:26:29;6.32;;;3.72;;
42168;SDS011;27838;43.858;25.974;2023-03-31T04:29:06;13.13;;;3.72;;
42168;SDS011;27838;43.858;25.974;2023-03-31T04:31:34;7.25;;;4.18;;
42168;SDS011;27838;43.858;25.974;2023-03-31T04:34:06;7.65;;;4.10;;
42168;SDS011;27838;43.858;25.974;2023-03-31T04:36:37;6.97;;;3.92;;
42168;SDS011;27838;43.858;25.974;2023-03-31T04:39:11;6.55;;;3.95;;
42168;SDS011;27838;43.858;25.974;2023-03-31T04:41:42;4.75;;;3.67;;
42168;SDS011;27838;43.858;25.974;2023-03-31T04:44:09;5.68;;;3.50;;
42168;SDS011;27838;43.858;25.974;2023-03-31T04:46:36;7.82;;;4.32;;
42168;SDS011;27838;43.858;25.974;2023-03-31T04:49:02;6.75;;;3.83;;
42168;SDS011;27838;43.858;25.974;2023-03-31T04:51:29;7.13;;;4.47;;
42168;SDS011;27838;43.858;25.974;2023-03-31T04:53:56;6.88;;;4.63;;
42168;SDS011;27838;43.858;25.974;2023-03-31T04:56:23;7.78;;;4.30;;
42168;SDS011;27838;43.858;25.974;2023-03-31T04:58:49;9.57;;;4.57;;
42168;SDS011;27838;43.858;25.974;2023-03-31T05:01:16;7.63;;;4.60;;
42168;SDS011;27838;43.858;25.974;2023-03-31T05:03:43;10.13;;;5.05;;
42168;SDS011;27838;43.858;25.974;2023-03-31T05:06:11;9.60;;;4.90;;
42168;SDS011;27838;43.858;25.974;2023-03-31T05:08:39;6.68;;;4.85;;
42168;SDS011;27838;43.858;25.974;2023-03-31T05:11:06;8.88;;;5.53;;
42168;SDS011;27838;43.858;25.974;2023-03-31T05:13:34;8.98;;;5.82;;
42168;SDS011;27838;43.858;25.974;2023-03-31T05:16:08;8.23;;;5.32;;
42168;SDS011;27838;43.858;25.974;2023-03-31T05:18:36;9.85;;;6.07;;
42168;SDS011;27838;43.858;25.974;2023-03-31T05:21:13;9.95;;;5.78;;
42168;SDS011;27838;43.858;25.974;2023-03-31T05:23:44;10.48;;;6.13;;
42168;SDS011;27838;43.858;25.974;2023-03-31T05:26:13;11.68;;;5.55;;
42168;SDS011;27838;43.858;25.974;2023-03-31T05:28:40;9.50;;;5.88;;
42168;SDS011;27838;43.858;25.974;2023-03-31T05:31:16;11.82;;;6.10;;
42168;SDS011;27838;43.858;25.974;2023-03-31T05:33:43;8.38;;;6.15;;
42168;SDS011;27838;43.858;25.974;2023-03-31T05:36:10;12.18;;;6.38;;
42168;SDS011;27838;43.858;25.974;2023-03-31T05:38:39;11.15;;;6.45;;
42168;SDS011;27838;43.858;25.974;2023-03-31T05:41:06;13.18;;;6.85;;
42168;SDS011;27838;43.858;25.974;2023-03-31T05:43:35;11.38;;;6.45;;
42168;SDS011;27838;43.858;25.974;2023-03-31T05:46:02;13.43;;;7.05;;
42168;SDS011;27838;43.858;25.974;2023-03-31T05:48:30;14.50;;;7.57;;
42168;SDS011;27838;43.858;25.974;2023-03-31T05:50:57;11.75;;;7.80;;
42168;SDS011;27838;43.858;25.974;2023-03-31T05:53:25;14.35;;;7.50;;
42168;SDS011;27838;43.858;25.974;2023-03-31T05:55:56;12.32;;;7.45;;
42168;SDS011;27838;43.858;25.974;2023-03-31T05:58:27;12.50;;;7.50;;
42168;SDS011;27838;43.858;25.974;2023-03-31T06:01:27;12.60;;;7.15;;
42168;SDS011;27838;43.858;25.974;2023-03-31T06:03:47;12.68;;;7.72;;
42168;SDS011;27838;43.858;25.974;2023-03-31T06:06:14;13.98;;;8.02;;
42168;SDS011;27838;43.858;25.974;2023-03-31T06:08:42;13.57;;;8.10;;
42168;SDS011;27838;43.858;25.974;2023-03-31T06:11:11;9.70;;;6.18;;
42168;SDS011;27838;43.858;25.974;2023-03-31T06:13:39;13.80;;;6.88;;
42168;SDS011;27838;43.858;25.974;2023-03-31T06:16:07;13.25;;;6.97;;
42168;SDS011;27838;43.858;25.974;2023-03-31T06:18:35;12.30;;;7.07;;
42168;SDS011;27838;43.858;25.974;2023-03-31T06:21:02;13.73;;;6.68;;
42168;SDS011;27838;43.858;25.974;2023-03-31T06:23:28;9.75;;;6.65;;
42168;SDS011;27838;43.858;25.974;2023-03-31T06:25:58;9.25;;;6.05;;
42168;SDS011;27838;43.858;25.974;2023-03-31T06:28:31;9.40;;;5.60;;
42168;SDS011;27838;43.858;25.974;2023-03-31T06:30:59;10.05;;;6.43;;
42168;SDS011;27838;43.858;25.974;2023-03-31T06:33:35;10.10;;;6.72;;
42168;SDS011;27838;43.858;25.974;2023-03-31T06:36:02;13.23;;;7.97;;
42168;SDS011;27838;43.858;25.974;2023-03-31T06:38:30;12.63;;;7.30;;
42168;SDS011;27838;43.858;25.974;2023-03-31T06:40:58;13.10;;;7.22;;
42168;SDS011;27838;43.858;25.974;2023-03-31T06:43:24;15.45;;;7.63;;
42168;SDS011;27838;43.858;25.974;2023-03-31T06:45:51;14.80;;;7.38;;
42168;SDS011;27838;43.858;25.974;2023-03-31T06:48:18;14.55;;;8.55;;
42168;SDS011;27838;43.858;25.974;2023-03-31T06:50:45;12.48;;;7.30;;
42168;SDS011;27838;43.858;25.974;2023-03-31T06:53:12;11.27;;;6.93;;
42168;SDS011;27838;43.858;25.974;2023-03-31T06:55:38;12.80;;;6.53;;
42168;SDS011;27838;43.858;25.974;2023-03-31T06:58:09;49.83;;;11.70;;
42168;SDS011;27838;43.858;25.974;2023-03-31T07:00:36;19.15;;;7.53;;
42168;SDS011;27838;43.858;25.974;2023-03-31T07:03:03;20.35;;;9.05;;
42168;SDS011;27838;43.858;25.974;2023-03-31T07:05:30;17.85;;;8.30;;
42168;SDS011;27838;43.858;25.974;2023-03-31T07:07:57;17.60;;;9.75;;
42168;SDS011;27838;43.858;25.974;2023-03-31T07:10:26;16.25;;;7.82;;
42168;SDS011;27838;43.858;25.974;2023-03-31T07:12:54;10.40;;;7.60;;
42168;SDS011;27838;43.858;25.974;2023-03-31T07:15:21;14.57;;;7.15;;
42168;SDS011;27838;43.858;25.974;2023-03-31T07:17:49;15.00;;;8.55;;
42168;SDS011;27838;43.858;25.974;2023-03-31T07:20:18;12.35;;;7.13;;
42168;SDS011;27838;43.858;25.974;2023-03-31T07:23:05;11.05;;;6.68;;
42168;SDS011;27838;43.858;25.974;2023-03-31T07:25:32;10.98;;;6.95;;
42168;SDS011;27838;43.858;25.974;2023-03-31T07:28:02;11.90;;;7.03;;
42168;SDS011;27838;43.858;25.974;2023-03-31T07:30:30;10.23;;;5.97;;
42168;SDS011;27838;43.858;25.974;2023-03-31T07:32:56;9.98;;;5.78;;
42168;SDS011;27838;43.858;25.974;2023-03-31T07:35:23;14.48;;;6.57;;
42168;SDS011;27838;43.858;25.974;2023-03-31T07:37:50;8.63;;;5.72;;
42168;SDS011;27838;43.858;25.974;2023-03-31T07:40:23;7.57;;;5.30;;
42168;SDS011;27838;43.858;25.974;2023-03-31T07:42:51;9.18;;;4.88;;
42168;SDS011;27838;43.858;25.974;2023-03-31T07:45:18;11.27;;;5.53;;
42168;SDS011;27838;43.858;25.974;2023-03-31T07:47:47;9.70;;;5.45;;
42168;SDS011;27838;43.858;25.974;2023-03-31T07:50:14;18.70;;;11.13;;
42168;SDS011;27838;43.858;25.974;2023-03-31T07:52:42;7.68;;;5.65;;
42168;SDS011;27838;43.858;25.974;2023-03-31T07:55:09;11.32;;;6.00;;
42168;SDS011;27838;43.858;25.974;2023-03-31T07:57:36;12.00;;;6.30;;
42168;SDS011;27838;43.858;25.974;2023-03-31T08:00:04;10.25;;;5.75;;
42168;SDS011;27838;43.858;25.974;2023-03-31T08:02:33;10.98;;;5.93;;
42168;SDS011;27838;43.858;25.974;2023-03-31T08:05:00;9.82;;;6.03;;
42168;SDS011;27838;43.858;25.974;2023-03-31T08:07:27;10.50;;;6.32;;
42168;SDS011;27838;43.858;25.974;2023-03-31T08:09:55;8.75;;;5.82;;
42168;SDS011;27838;43.858;25.974;2023-03-31T08:12:22;10.98;;;6.20;;
42168;SDS011;27838;43.858;25.974;2023-03-31T08:14:49;11.45;;;6.18;;
42168;SDS011;27838;43.858;25.974;2023-03-31T08:17:15;10.18;;;5.85;;
42168;SDS011;27838;43.858;25.974;2023-03-31T08:19:42;9.90;;;5.63;;
42168;SDS011;27838;43.858;25.974;2023-03-31T08:22:09;10.25;;;6.38;;
42168;SDS011;27838;43.858;25.974;2023-03-31T08:24:35;10.63;;;6.40;;
42168;SDS011;27838;43.858;25.974;2023-03-31T08:27:08;10.02;;;5.43;;
42168;SDS011;27838;43.858;25.974;2023-03-31T08:29:34;7.35;;;5.65;;
42168;SDS011;27838;43.858;25.974;2023-03-31T08:32:01;10.07;;;5.90;;
42168;SDS011;27838;43.858;25.974;2023-03-31T08:34:28;7.20;;;5.30;;
42168;SDS011;27838;43.858;25.974;2023-03-31T08:36:54;9.68;;;6.05;;
42168;SDS011;27838;43.858;25.974;2023-03-31T08:39:21;9.23;;;5.38;;
42168;SDS011;27838;43.858;25.974;2023-03-31T08:41:59;9.00;;;5.53;;
42168;SDS011;27838;43.858;25.974;2023-03-31T08:47:11;8.07;;;5.28;;
42168;SDS011;27838;43.858;25.974;2023-03-31T08:49:58;8.88;;;5.50;;
42168;SDS011;27838;43.858;25.974;2023-03-31T08:52:30;9.50;;;5.90;;
42168;SDS011;27838;43.858;25.974;2023-03-31T08:55:06;8.75;;;5.30;;
42168;SDS011;27838;43.858;25.974;2023-03-31T09:00:23;7.63;;;4.53;;
42168;SDS011;27838;43.858;25.974;2023-03-31T09:03:01;7.85;;;4.78;;
42168;SDS011;27838;43.858;25.974;2023-03-31T09:05:36;8.38;;;5.25;;
42168;SDS011;27838;43.858;25.974;2023-03-31T09:08:13;8.70;;;4.30;;
42168;SDS011;27838;43.858;25.974;2023-03-31T09:11:03;11.02;;;4.32;;
42168;SDS011;27838;43.858;25.974;2023-03-31T09:16:29;8.52;;;5.07;;
42168;SDS011;27838;43.858;25.974;2023-03-31T09:19:12;8.25;;;4.20;;
42168;SDS011;27838;43.858;25.974;2023-03-31T09:21:44;7.93;;;4.10;;
42168;SDS011;27838;43.858;25.974;2023-03-31T09:24:20;6.10;;;3.80;;
42168;SDS011;27838;43.858;25.974;2023-03-31T09:27:05;7.65;;;3.80;;
42168;SDS011;27838;43.858;25.974;2023-03-31T09:32:26;6.63;;;3.35;;
42168;SDS011;27838;43.858;25.974;2023-03-31T09:37:41;10.95;;;4.57;;
42168;SDS011;27838;43.858;25.974;2023-03-31T09:40:12;12.40;;;4.00;;
42168;SDS011;27838;43.858;25.974;2023-03-31T09:42:43;10.27;;;4.15;;
42168;SDS011;27838;43.858;25.974;2023-03-31T09:45:15;11.95;;;3.88;;
42168;SDS011;27838;43.858;25.974;2023-03-31T09:47:44;13.00;;;4.50;;
42168;SDS011;27838;43.858;25.974;2023-03-31T09:50:22;6.97;;;3.58;;
42168;SDS011;27838;43.858;25.974;2023-03-31T09:52:57;8.43;;;3.53;;
42168;SDS011;27838;43.858;25.974;2023-03-31T09:57:52;8.70;;;5.00;;
42168;SDS011;27838;43.858;25.974;2023-03-31T10:00:20;8.90;;;4.05;;
42168;SDS011;27838;43.858;25.974;2023-03-31T10:05:22;6.85;;;4.13;;
42168;SDS011;27838;43.858;25.974;2023-03-31T10:10:43;8.75;;;4.10;;
42168;SDS011;27838;43.858;25.974;2023-03-31T10:16:06;12.68;;;4.63;;
42168;SDS011;27838;43.858;25.974;2023-03-31T10:18:39;17.52;;;5.47;;
42168;SDS011;27838;43.858;25.974;2023-03-31T10:21:14;8.48;;;4.97;;
42168;SDS011;27838;43.858;25.974;2023-03-31T10:23:46;13.55;;;5.60;;
42168;SDS011;27838;43.858;25.974;2023-03-31T10:26:19;16.48;;;5.72;;
42168;SDS011;27838;43.858;25.974;2023-03-31T10:28:49;15.25;;;5.75;;
42168;SDS011;27838;43.858;25.974;2023-03-31T10:31:19;15.68;;;5.82;;
42168;SDS011;27838;43.858;25.974;2023-03-31T10:33:49;15.82;;;5.50;;
42168;SDS011;27838;43.858;25.974;2023-03-31T10:36:20;16.73;;;6.13;;
42168;SDS011;27838;43.858;25.974;2023-03-31T10:38:49;11.38;;;4.85;;
42168;SDS011;27838;43.858;25.974;2023-03-31T10:41:18;18.83;;;6.35;;
42168;SDS011;27838;43.858;25.974;2023-03-31T10:43:49;12.43;;;4.18;;
42168;SDS011;27838;43.858;25.974;2023-03-31T10:46:17;10.07;;;4.82;;
42168;SDS011;27838;43.858;25.974;2023-03-31T10:48:44;18.55;;;5.88;;
42168;SDS011;27838;43.858;25.974;2023-03-31T10:51:24;14.95;;;5.18;;
42168;SDS011;27838;43.858;25.974;2023-03-31T10:53:53;15.13;;;5.85;;
42168;SDS011;27838;43.858;25.974;2023-03-31T11:02:00;13.65;;;5.55;;
42168;SDS011;27838;43.858;25.974;2023-03-31T11:07:34;10.77;;;5.63;;
42168;SDS011;27838;43.858;25.974;2023-03-31T11:18:39;11.48;;;4.60;;
42168;SDS011;27838;43.858;25.974;2023-03-31T11:21:26;14.90;;;5.00;;
42168;SDS011;27838;43.858;25.974;2023-03-31T11:24:09;12.25;;;4.78;;
42168;SDS011;27838;43.858;25.974;2023-03-31T11:26:50;12.00;;;4.45;;
42168;SDS011;27838;43.858;25.974;2023-03-31T11:38:33;8.20;;;3.65;;
42168;SDS011;27838;43.858;25.974;2023-03-31T11:41:33;6.00;;;3.42;;
42168;SDS011;27838;43.858;25.974;2023-03-31T11:44:07;6.30;;;2.70;;
42168;SDS011;27838;43.858;25.974;2023-03-31T11:46:51;5.40;;;2.63;;
42168;SDS011;27838;43.858;25.974;2023-03-31T11:49:29;8.07;;;2.42;;
42168;SDS011;27838;43.858;25.974;2023-03-31T11:52:07;8.43;;;2.70;;
42168;SDS011;27838;43.858;25.974;2023-03-31T11:59:54;7.45;;;2.03;;
42168;SDS011;27838;43.858;25.974;2023-03-31T12:02:45;6.47;;;1.92;;
42168;SDS011;27838;43.858;25.974;2023-03-31T12:05:19;23.65;;;4.00;;
42168;SDS011;27838;43.858;25.974;2023-03-31T12:07:51;10.30;;;3.05;;
42168;SDS011;27838;43.858;25.974;2023-03-31T12:10:30;10.48;;;3.03;;
42168;SDS011;27838;43.858;25.974;2023-03-31T12:15:50;11.30;;;2.45;;
42168;SDS011;27838;43.858;25.974;2023-03-31T12:18:25;12.75;;;2.60;;
42168;SDS011;27838;43.858;25.974;2023-03-31T12:21:02;11.13;;;2.78;;
42168;SDS011;27838;43.858;25.974;2023-03-31T12:23:33;6.53;;;2.17;;
42168;SDS011;27838;43.858;25.974;2023-03-31T12:26:07;7.13;;;1.98;;
42168;SDS011;27838;43.858;25.974;2023-03-31T12:28:37;7.70;;;2.20;;
42168;SDS011;27838;43.858;25.974;2023-03-31T12:31:11;6.85;;;1.90;;
42168;SDS011;27838;43.858;25.974;2023-03-31T12:33:46;6.15;;;2.00;;
42168;SDS011;27838;43.858;25.974;2023-03-31T12:36:23;5.80;;;1.80;;
42168;SDS011;27838;43.858;25.974;2023-03-31T12:55:57;5.28;;;2.22;;
42168;SDS011;27838;43.858;25.974;2023-03-31T13:01:12;8.48;;;2.40;;
42168;SDS011;27838;43.858;25.974;2023-03-31T13:03:47;9.05;;;2.50;;
42168;SDS011;27838;43.858;25.974;2023-03-31T13:09:44;3.67;;;2.55;;
42168;SDS011;27838;43.858;25.974;2023-03-31T13:11:56;7.22;;;2.30;;
42168;SDS011;27838;43.858;25.974;2023-03-31T13:19:47;12.90;;;2.65;;
42168;SDS011;27838;43.858;25.974;2023-03-31T13:22:26;4.95;;;2.40;;
42168;SDS011;27838;43.858;25.974;2023-03-31T13:33:20;7.35;;;2.42;;
42168;SDS011;27838;43.858;25.974;2023-03-31T13:47:22;9.80;;;2.38;;
42168;SDS011;27838;43.858;25.974;2023-03-31T13:56:07;19.38;;;7.82;;
42168;SDS011;27838;43.858;25.974;2023-03-31T14:04:34;13.07;;;2.55;;
42168;SDS011;27838;43.858;25.974;2023-03-31T14:07:13;10.73;;;2.60;;
42168;SDS011;27838;43.858;25.974;2023-03-31T14:09:43;12.10;;;2.60;;
42168;SDS011;27838;43.858;25.974;2023-03-31T14:15:04;11.23;;;2.92;;
42168;SDS011;27838;43.858;25.974;2023-03-31T14:17:36;8.48;;;2.10;;
42168;SDS011;27838;43.858;25.974;2023-03-31T14:36:52;9.85;;;2.00;;
42168;SDS011;27838;43.858;25.974;2023-03-31T14:39:51;2.90;;;1.95;;
42168;SDS011;27838;43.858;25.974;2023-03-31T14:42:28;8.63;;;2.10;;
42168;SDS011;27838;43.858;25.974;2023-03-31T14:45:06;10.85;;;2.90;;
42168;SDS011;27838;43.858;25.974;2023-03-31T14:50:37;5.25;;;1.80;;
42168;SDS011;27838;43.858;25.974;2023-03-31T14:53:18;10.40;;;2.35;;
42168;SDS011;27838;43.858;25.974;2023-03-31T14:55:49;6.78;;;1.85;;
42168;SDS011;27838;43.858;25.974;2023-03-31T14:58:20;5.18;;;2.65;;
42168;SDS011;27838;43.858;25.974;2023-03-31T15:00:52;7.30;;;2.38;;
42168;SDS011;27838;43.858;25.974;2023-03-31T15:03:19;7.15;;;2.13;;
42168;SDS011;27838;43.858;25.974;2023-03-31T15:05:46;10.05;;;4.10;;
42168;SDS011;27838;43.858;25.974;2023-03-31T15:08:13;9.40;;;3.60;;
42168;SDS011;27838;43.858;25.974;2023-03-31T15:10:43;4.30;;;2.50;;
42168;SDS011;27838;43.858;25.974;2023-03-31T15:13:19;29.20;;;19.98;;
42168;SDS011;27838;43.858;25.974;2023-03-31T15:15:51;11.00;;;4.18;;
42168;SDS011;27838;43.858;25.974;2023-03-31T15:18:17;51.95;;;7.55;;
42168;SDS011;27838;43.858;25.974;2023-03-31T15:20:44;24.95;;;4.13;;
42168;SDS011;27838;43.858;25.974;2023-03-31T15:25:58;8.95;;;2.45;;
42168;SDS011;27838;43.858;25.974;2023-03-31T15:33:32;8.05;;;4.00;;
42168;SDS011;27838;43.858;25.974;2023-03-31T15:36:10;12.80;;;7.60;;
42168;SDS011;27838;43.858;25.974;2023-03-31T15:38:37;12.63;;;3.88;;
42168;SDS011;27838;43.858;25.974;2023-03-31T15:41:10;9.27;;;4.93;;
42168;SDS011;27838;43.858;25.974;2023-03-31T15:46:18;12.15;;;5.45;;
42168;SDS011;27838;43.858;25.974;2023-03-31T15:48:51;14.45;;;7.88;;
42168;SDS011;27838;43.858;25.974;2023-03-31T15:51:30;16.65;;;4.60;;
42168;SDS011;27838;43.858;25.974;2023-03-31T15:54:01;9.13;;;3.40;;
42168;SDS011;27838;43.858;25.974;2023-03-31T15:56:30;30.27;;;21.25;;
42168;SDS011;27838;43.858;25.974;2023-03-31T15:59:05;37.92;;;29.70;;
42168;SDS011;27838;43.858;25.974;2023-03-31T16:01:52;4.93;;;2.65;;
42168;SDS011;27838;43.858;25.974;2023-03-31T16:04:21;9.20;;;2.83;;
42168;SDS011;27838;43.858;25.974;2023-03-31T16:07:06;7.38;;;3.35;;
42168;SDS011;27838;43.858;25.974;2023-03-31T16:12:22;13.07;;;8.15;;
42168;SDS011;27838;43.858;25.974;2023-03-31T16:20:15;13.48;;;7.57;;
42168;SDS011;27838;43.858;25.974;2023-03-31T16:22:57;14.52;;;7.10;;
42168;SDS011;27838;43.858;25.974;2023-03-31T16:25:28;7.70;;;3.70;;
42168;SDS011;27838;43.858;25.974;2023-03-31T16:27:57;9.55;;;3.22;;
42168;SDS011;27838;43.858;25.974;2023-03-31T16:30:39;14.95;;;2.38;;
42168;SDS011;27838;43.858;25.974;2023-03-31T16:33:11;22.52;;;16.13;;
42168;SDS011;27838;43.858;25.974;2023-03-31T16:35:45;19.85;;;5.40;;
42168;SDS011;27838;43.858;25.974;2023-03-31T16:38:15;10.52;;;7.13;;
42168;SDS011;27838;43.858;25.974;2023-03-31T16:40:44;18.10;;;9.25;;
42168;SDS011;27838;43.858;25.974;2023-03-31T16:45:49;11.27;;;7.95;;
42168;SDS011;27838;43.858;25.974;2023-03-31T16:48:18;9.75;;;5.07;;
42168;SDS011;27838;43.858;25.974;2023-03-31T16:50:48;11.88;;;4.97;;
42168;SDS011;27838;43.858;25.974;2023-03-31T16:53:18;8.63;;;3.95;;
42168;SDS011;27838;43.858;25.974;2023-03-31T16:55:49;9.88;;;4.78;;
42168;SDS011;27838;43.858;25.974;2023-03-31T16:58:15;15.00;;;7.60;;
42168;SDS011;27838;43.858;25.974;2023-03-31T17:00:42;26.58;;;18.20;;
42168;SDS011;27838;43.858;25.974;2023-03-31T17:03:10;34.78;;;22.30;;
42168;SDS011;27838;43.858;25.974;2023-03-31T17:05:41;32.67;;;22.58;;
42168;SDS011;27838;43.858;25.974;2023-03-31T17:08:10;9.15;;;3.00;;
42168;SDS011;27838;43.858;25.974;2023-03-31T17:10:37;7.57;;;3.08;;
42168;SDS011;27838;43.858;25.974;2023-03-31T17:13:05;9.07;;;2.70;;
42168;SDS011;27838;43.858;25.974;2023-03-31T17:15:33;6.80;;;2.90;;
42168;SDS011;27838;43.858;25.974;2023-03-31T17:18:01;8.13;;;4.68;;
42168;SDS011;27838;43.858;25.974;2023-03-31T17:20:29;10.77;;;5.55;;
42168;SDS011;27838;43.858;25.974;2023-03-31T17:22:56;13.27;;;3.67;;
42168;SDS011;27838;43.858;25.974;2023-03-31T17:25:23;5.82;;;3.53;;
42168;SDS011;27838;43.858;25.974;2023-03-31T17:27:50;20.20;;;12.48;;
42168;SDS011;27838;43.858;25.974;2023-03-31T17:30:17;11.05;;;4.45;;
42168;SDS011;27838;43.858;25.974;2023-03-31T17:32:43;7.85;;;4.72;;
42168;SDS011;27838;43.858;25.974;2023-03-31T17:35:10;6.43;;;3.35;;
42168;SDS011;27838;43.858;25.974;2023-03-31T17:37:44;7.75;;;4.78;;
42168;SDS011;27838;43.858;25.974;2023-03-31T17:40:11;8.77;;;5.53;;
42168;SDS011;27838;43.858;25.974;2023-03-31T17:42:39;21.17;;;15.18;;
42168;SDS011;27838;43.858;25.974;2023-03-31T17:45:06;33.38;;;27.10;;
42168;SDS011;27838;43.858;25.974;2023-03-31T17:47:33;8.35;;;3.70;;
42168;SDS011;27838;43.858;25.974;2023-03-31T17:50:00;8.68;;;4.40;;
42168;SDS011;27838;43.858;25.974;2023-03-31T17:52:26;25.27;;;19.15;;
42168;SDS011;27838;43.858;25.974;2023-03-31T17:54:56;18.15;;;9.88;;
42168;SDS011;27838;43.858;25.974;2023-03-31T17:57:23;8.63;;;4.63;;
42168;SDS011;27838;43.858;25.974;2023-03-31T17:59:50;18.38;;;10.93;;
42168;SDS011;27838;43.858;25.974;2023-03-31T18:02:16;23.35;;;12.73;;
42168;SDS011;27838;43.858;25.974;2023-03-31T18:04:43;15.23;;;8.65;;
42168;SDS011;27838;43.858;25.974;2023-03-31T18:07:10;13.90;;;9.43;;
42168;SDS011;27838;43.858;25.974;2023-03-31T18:09:37;11.60;;;7.32;;
42168;SDS011;27838;43.858;25.974;2023-03-31T18:12:04;10.50;;;4.47;;
42168;SDS011;27838;43.858;25.974;2023-03-31T18:14:31;8.77;;;4.93;;
42168;SDS011;27838;43.858;25.974;2023-03-31T18:16:57;7.82;;;5.28;;
42168;SDS011;27838;43.858;25.974;2023-03-31T18:19:24;8.32;;;4.40;;
42168;SDS011;27838;43.858;25.974;2023-03-31T18:21:51;12.52;;;4.82;;
42168;SDS011;27838;43.858;25.974;2023-03-31T18:24:17;7.20;;;3.90;;